Time;durP1;ratioP1;P1;durP2;ratioP2;P2;SDS_P1;SDS_P2;PMS_P1;PMS_P2;Temp;Humidity;BMP_temperature;BMP_pressure;BME280_temperature;BME280_humidity;BME280_pressure;Samples;Min_cycle;Max_cycle;Signal;HPM_P1;HPM_P2
2023/07/13 00:00:27;;;;;;;;;;;16.70;99.90;;;;;;5154430;27;19907;-42
2023/07/13 00:02:55;;;;;;;;;;;16.70;99.90;;;;;;5146702;27;19915;-43
2023/07/13 00:05:21;;;;;;;;;;;16.70;99.90;;;;;;5134372;27;20002;-46
2023/07/13 00:07:48;;;;;;;;;;;16.70;99.90;;;;;;5132783;27;19923;-43
2023/07/13 00:10:13;;;;;;;;;;;16.60;99.90;;;;;;5134561;27;19912;-43
2023/07/13 00:12:39;;;;;;;;;;;16.60;99.90;;;;;;5154370;27;19911;-42
2023/07/13 00:15:07;;;;;;;;;;;16.60;99.90;;;;;;5153776;27;19918;-43
2023/07/13 00:17:33;;;;;;;;;;;16.60;99.90;;;;;;5154760;27;19946;-44
2023/07/13 00:19:58;;;;;;;;;;;16.50;99.90;;;;;;5120485;27;20376;-43
2023/07/13 00:22:25;;;;;;;;;;;16.60;99.90;;;;;;5153847;27;19994;-42
2023/07/13 00:24:56;;;;;;;;;;;16.50;99.90;;;;;;5143125;27;19915;-43
2023/07/13 00:27:21;;;;;;;;;;;16.50;99.90;;;;;;5131057;27;19920;-43
2023/07/13 00:29:47;;;;;;;;;;;16.60;99.90;;;;;;5119288;27;20040;-45
2023/07/13 00:32:12;;;;;;;;;;;16.60;99.90;;;;;;5133882;27;19918;-42
2023/07/13 00:34:38;;;;;;;;;;;16.60;99.90;;;;;;5133710;27;20277;-42
2023/07/13 00:37:06;;;;;;;;;;;16.60;99.90;;;;;;5142382;27;20038;-42
2023/07/13 00:39:32;;;;;;;;;;;16.70;99.90;;;;;;5143613;27;19915;-42
2023/07/13 00:41:58;;;;;;;;;;;16.70;99.90;;;;;;5154558;27;19950;-43
2023/07/13 00:44:23;;;;;;;;;;;16.70;99.90;;;;;;5133342;27;19992;-43
2023/07/13 00:46:49;;;;;;;;;;;16.70;99.90;;;;;;5113071;28;20292;-42
2023/07/13 00:49:16;;;;;;;;;;;16.70;99.90;;;;;;5113365;28;20343;-43
2023/07/13 00:51:44;;;;;;;;;;;16.70;99.90;;;;;;5112565;28;19915;-43
2023/07/13 00:54:12;;;;;;;;;;;16.70;99.90;;;;;;5121067;28;19960;-43
2023/07/13 00:56:39;;;;;;;;;;;16.70;99.90;;;;;;5138734;27;19958;-43
2023/07/13 00:59:06;;;;;;;;;;;16.70;99.90;;;;;;5154086;27;19907;-42
2023/07/13 01:01:32;;;;;;;;;;;16.70;99.90;;;;;;5154334;27;19959;-45
2023/07/13 01:03:57;;;;;;;;;;;16.70;99.90;;;;;;5153410;27;19911;-44
2023/07/13 01:06:23;;;;;;;;;;;16.70;99.90;;;;;;5134889;27;19965;-42
2023/07/13 01:08:48;;;;;;;;;;;16.60;99.90;;;;;;5124753;27;20190;-43
2023/07/13 01:11:18;;;;;;;;;;;16.60;99.90;;;;;;5127246;27;20286;-41
2023/07/13 01:13:43;;;;;;;;;;;16.60;99.90;;;;;;5136693;27;19909;-42
2023/07/13 01:16:13;;;;;;;;;;;16.50;99.90;;;;;;5128566;27;19961;-45
2023/07/13 01:18:39;;;;;;;;;;;16.50;99.90;;;;;;5116194;28;19914;-42
2023/07/13 01:21:05;;;;;;;;;;;16.50;99.90;;;;;;5116694;28;19908;-43
2023/07/13 01:23:31;;;;;;;;;;;16.50;99.90;;;;;;5116860;28;19915;-43
2023/07/13 01:25:57;;;;;;;;;;;16.50;99.90;;;;;;5115968;28;19919;-44
2023/07/13 01:28:23;;;;;;;;;;;16.50;99.90;;;;;;5116843;28;19959;-44
2023/07/13 01:30:48;;;;;;;;;;;16.40;99.90;;;;;;5116711;28;19908;-42
2023/07/13 01:33:16;;;;;;;;;;;16.40;99.90;;;;;;5143322;27;19914;-43
2023/07/13 01:35:42;;;;;;;;;;;16.30;99.90;;;;;;5157949;27;19971;-44
2023/07/13 01:38:08;;;;;;;;;;;16.30;99.90;;;;;;5156442;27;19956;-42
2023/07/13 01:40:33;;;;;;;;;;;16.30;99.90;;;;;;5146191;27;19992;-43
2023/07/13 01:43:00;;;;;;;;;;;16.30;99.90;;;;;;5157535;27;20002;-43
2023/07/13 01:45:25;;;;;;;;;;;16.30;99.90;;;;;;5151118;27;19919;-44
2023/07/13 01:47:51;;;;;;;;;;;16.30;99.90;;;;;;5134875;27;19918;-42
2023/07/13 01:50:17;;;;;;;;;;;16.30;99.90;;;;;;5136862;27;19915;-43
2023/07/13 01:52:42;;;;;;;;;;;16.30;99.90;;;;;;5130857;27;19934;-43
2023/07/13 01:55:08;;;;;;;;;;;16.30;99.90;;;;;;5136164;27;19945;-42
2023/07/13 01:57:33;;;;;;;;;;;16.30;99.90;;;;;;5137992;27;20002;-43
2023/07/13 01:59:59;;;;;;;;;;;16.30;99.90;;;;;;5148056;27;19915;-45
2023/07/13 02:02:25;;;;;;;;;;;16.30;99.90;;;;;;5136790;27;19907;-43
2023/07/13 02:04:50;;;;;;;;;;;16.30;99.90;;;;;;5147553;27;20358;-43
2023/07/13 02:07:16;;;;;;;;;;;16.30;99.90;;;;;;5156433;27;19957;-43
2023/07/13 02:09:42;;;;;;;;;;;16.30;99.90;;;;;;5157309;27;19961;-44
2023/07/13 02:12:07;;;;;;;;;;;16.30;99.90;;;;;;5157407;27;19938;-44
2023/07/13 02:14:33;;;;;;;;;;;16.40;99.90;;;;;;5156573;27;19985;-43
2023/07/13 02:16:59;;;;;;;;;;;16.30;99.90;;;;;;5145658;27;19912;-43
2023/07/13 02:19:24;;;;;;;;;;;16.40;99.90;;;;;;5152623;27;19907;-43
2023/07/13 02:21:50;;;;;;;;;;;16.30;99.90;;;;;;5156238;27;19907;-42
2023/07/13 02:24:17;;;;;;;;;;;16.30;99.90;;;;;;5157078;27;19907;-42
2023/07/13 02:26:45;;;;;;;;;;;16.30;99.90;;;;;;5156873;27;19922;-43
2023/07/13 02:29:11;;;;;;;;;;;16.30;99.90;;;;;;5156248;27;19914;-41
2023/07/13 02:31:37;;;;;;;;;;;16.20;99.90;;;;;;5156920;27;19911;-43
2023/07/13 02:34:03;;;;;;;;;;;16.20;99.90;;;;;;5156831;27;20065;-43
2023/07/13 02:36:29;;;;;;;;;;;16.20;99.90;;;;;;5156094;27;19915;-43
2023/07/13 02:38:55;;;;;;;;;;;16.20;99.90;;;;;;5156689;27;20270;-44
2023/07/13 02:41:22;;;;;;;;;;;16.10;99.90;;;;;;5156523;27;19919;-43
2023/07/13 02:43:48;;;;;;;;;;;16.10;99.90;;;;;;5155814;27;19946;-43
2023/07/13 02:46:13;;;;;;;;;;;16.10;99.90;;;;;;5156575;27;19954;-43
2023/07/13 02:48:39;;;;;;;;;;;16.10;99.90;;;;;;5156610;27;19913;-44
2023/07/13 02:51:05;;;;;;;;;;;16.00;99.90;;;;;;5155663;27;20258;-43
2023/07/13 02:53:30;;;;;;;;;;;16.00;99.90;;;;;;5145471;27;19908;-43
2023/07/13 02:55:56;;;;;;;;;;;16.00;99.90;;;;;;5135858;27;19915;-42
2023/07/13 02:58:22;;;;;;;;;;;16.00;99.90;;;;;;5122179;27;20425;-43
2023/07/13 03:00:48;;;;;;;;;;;15.90;99.90;;;;;;5115030;28;20359;-41
2023/07/13 03:03:14;;;;;;;;;;;16.00;99.90;;;;;;5114942;28;19908;-42
2023/07/13 03:05:40;;;;;;;;;;;15.90;99.90;;;;;;5114322;28;19943;-42
2023/07/13 03:08:06;;;;;;;;;;;15.90;99.90;;;;;;5114940;28;19941;-42
2023/07/13 03:10:31;;;;;;;;;;;15.90;99.90;;;;;;5114136;28;19908;-42
2023/07/13 03:12:57;;;;;;;;;;;15.80;99.90;;;;;;5114826;28;19916;-43
2023/07/13 03:15:22;;;;;;;;;;;15.90;99.90;;;;;;5115172;28;19967;-43
2023/07/13 03:17:48;;;;;;;;;;;15.90;99.90;;;;;;5113901;28;19908;-42
2023/07/13 03:20:14;;;;;;;;;;;15.90;99.90;;;;;;5114758;28;19999;-43
2023/07/13 03:22:39;;;;;;;;;;;15.90;99.90;;;;;;5114588;28;19961;-43
2023/07/13 03:25:05;;;;;;;;;;;15.90;99.90;;;;;;5113784;28;19912;-42
2023/07/13 03:27:30;;;;;;;;;;;15.90;99.90;;;;;;5114710;28;19999;-43
2023/07/13 03:29:56;;;;;;;;;;;15.90;99.90;;;;;;5114471;28;20316;-42
2023/07/13 03:32:22;;;;;;;;;;;15.90;99.90;;;;;;5112700;28;19907;-42
2023/07/13 03:34:47;;;;;;;;;;;15.90;99.90;;;;;;5114247;28;20285;-45
2023/07/13 03:37:13;;;;;;;;;;;15.90;99.90;;;;;;5114360;28;20292;-43
2023/07/13 03:39:38;;;;;;;;;;;15.90;99.90;;;;;;5113368;28;19920;-41
2023/07/13 03:42:04;;;;;;;;;;;15.90;99.90;;;;;;5114314;28;19961;-43
2023/07/13 03:44:30;;;;;;;;;;;15.90;99.90;;;;;;5114232;28;19908;-42
2023/07/13 03:46:55;;;;;;;;;;;15.80;99.90;;;;;;5113237;28;19961;-45
2023/07/13 03:49:21;;;;;;;;;;;15.80;99.90;;;;;;5114138;28;19954;-43
2023/07/13 03:51:46;;;;;;;;;;;15.80;99.90;;;;;;5113997;28;19919;-41
2023/07/13 03:54:12;;;;;;;;;;;15.80;99.90;;;;;;5129863;27;19911;-43
2023/07/13 03:56:37;;;;;;;;;;;15.80;99.90;;;;;;5134544;27;19976;-44
2023/07/13 03:59:03;;;;;;;;;;;15.80;99.90;;;;;;5134488;27;19914;-43
2023/07/13 04:01:29;;;;;;;;;;;15.90;99.90;;;;;;5128587;27;19919;-43
2023/07/13 04:03:54;;;;;;;;;;;15.90;99.90;;;;;;5113763;28;19925;-43
2023/07/13 04:06:21;;;;;;;;;;;15.90;99.90;;;;;;5113811;28;19915;-42
2023/07/13 04:08:51;;;;;;;;;;;15.90;99.90;;;;;;5130589;27;19923;-42
2023/07/13 04:11:17;;;;;;;;;;;15.80;99.90;;;;;;5120342;27;19916;-42
2023/07/13 04:13:43;;;;;;;;;;;15.80;99.90;;;;;;5112648;28;19912;-42
2023/07/13 04:16:09;;;;;;;;;;;15.80;99.90;;;;;;5113612;28;20010;-42
2023/07/13 04:18:35;;;;;;;;;;;15.70;99.90;;;;;;5113568;28;19908;-43
2023/07/13 04:21:00;;;;;;;;;;;15.70;99.90;;;;;;5112642;28;19958;-43
2023/07/13 04:23:26;;;;;;;;;;;15.70;99.90;;;;;;5113655;28;19943;-42
2023/07/13 04:25:52;;;;;;;;;;;15.70;99.90;;;;;;5128411;27;20436;-42
2023/07/13 04:28:18;;;;;;;;;;;15.70;99.90;;;;;;5144105;27;19950;-43
2023/07/13 04:30:44;;;;;;;;;;;15.70;99.90;;;;;;5133599;27;19911;-43
2023/07/13 04:33:10;;;;;;;;;;;15.80;99.90;;;;;;5133980;27;20385;-44
2023/07/13 04:35:35;;;;;;;;;;;15.70;99.90;;;;;;5145461;27;19911;-42
2023/07/13 04:38:02;;;;;;;;;;;15.70;99.90;;;;;;5133946;27;19970;-43
2023/07/13 04:40:27;;;;;;;;;;;15.70;99.90;;;;;;5140941;27;19927;-45
2023/07/13 04:42:53;;;;;;;;;;;15.70;99.90;;;;;;5153406;27;19911;-42
2023/07/13 04:45:18;;;;;;;;;;;15.60;99.90;;;;;;5154362;27;20314;-42
2023/07/13 04:47:44;;;;;;;;;;;15.60;99.90;;;;;;5154426;27;19907;-43
2023/07/13 04:50:12;;;;;;;;;;;15.60;99.90;;;;;;5153828;27;19907;-43
2023/07/13 04:52:38;;;;;;;;;;;15.60;99.90;;;;;;5146838;27;19911;-45
2023/07/13 04:55:04;;;;;;;;;;;15.60;99.90;;;;;;5133748;28;20412;-42
2023/07/13 04:57:29;;;;;;;;;;;15.50;99.90;;;;;;5132878;28;20323;-44
2023/07/13 04:59:55;;;;;;;;;;;15.50;99.90;;;;;;5133574;28;19908;-43
2023/07/13 05:02:21;;;;;;;;;;;15.50;99.90;;;;;;5133669;28;20323;-43
2023/07/13 05:04:47;;;;;;;;;;;15.50;99.90;;;;;;5132780;28;19908;-41
2023/07/13 05:07:13;;;;;;;;;;;15.60;99.90;;;;;;5133559;28;19916;-42
2023/07/13 05:09:39;;;;;;;;;;;15.60;99.90;;;;;;5133553;28;20024;-43
2023/07/13 05:12:06;;;;;;;;;;;15.60;99.90;;;;;;5132797;28;20423;-44
2023/07/13 05:14:31;;;;;;;;;;;15.60;99.90;;;;;;5133365;28;19942;-42
2023/07/13 05:16:57;;;;;;;;;;;15.70;99.90;;;;;;5132657;28;19951;-43
2023/07/13 05:19:23;;;;;;;;;;;15.70;99.90;;;;;;5133573;28;19961;-43
2023/07/13 05:21:48;;;;;;;;;;;15.70;99.90;;;;;;5133447;28;19914;-42
2023/07/13 05:24:14;;;;;;;;;;;15.80;99.90;;;;;;5132820;28;20385;-43
2023/07/13 05:26:39;;;;;;;;;;;15.80;99.90;;;;;;5133270;28;20389;-42
2023/07/13 05:29:05;;;;;;;;;;;15.80;99.90;;;;;;5134283;27;19918;-43
2023/07/13 05:31:30;;;;;;;;;;;15.80;99.90;;;;;;5150274;27;20369;-42
2023/07/13 05:33:56;;;;;;;;;;;15.90;99.90;;;;;;5134323;27;19976;-43
2023/07/13 05:36:21;;;;;;;;;;;15.90;99.90;;;;;;5115555;28;20405;-42
2023/07/13 05:38:47;;;;;;;;;;;15.90;99.90;;;;;;5129674;28;20429;-43
2023/07/13 05:41:12;;;;;;;;;;;16.00;99.90;;;;;;5130452;28;19924;-45
2023/07/13 05:43:38;;;;;;;;;;;16.00;99.90;;;;;;5126819;28;19912;-42
2023/07/13 05:46:03;;;;;;;;;;;16.00;99.90;;;;;;5112495;28;19923;-44
2023/07/13 05:48:29;;;;;;;;;;;16.10;99.90;;;;;;5117997;28;20554;-42
2023/07/13 05:50:54;;;;;;;;;;;16.10;99.90;;;;;;5124554;28;19982;-43
2023/07/13 05:53:20;;;;;;;;;;;16.20;99.90;;;;;;5127590;28;19953;-45
2023/07/13 05:55:52;;;;;;;;;;;16.20;99.90;;;;;;5133126;27;20032;-44
2023/07/13 05:58:18;;;;;;;;;;;16.20;99.90;;;;;;5120830;27;19934;-42
2023/07/13 06:00:44;;;;;;;;;;;16.30;99.90;;;;;;5126700;27;20266;-43
2023/07/13 06:03:09;;;;;;;;;;;16.40;99.90;;;;;;5112598;27;19915;-45
2023/07/13 06:05:36;;;;;;;;;;;16.40;99.90;;;;;;5126065;27;19915;-43
2023/07/13 06:08:02;;;;;;;;;;;16.40;99.90;;;;;;5118417;27;20350;-42
2023/07/13 06:10:27;;;;;;;;;;;16.50;99.90;;;;;;5131006;27;19911;-43
2023/07/13 06:12:53;;;;;;;;;;;16.50;99.90;;;;;;5127935;27;19969;-43
2023/07/13 06:15:19;;;;;;;;;;;16.60;99.90;;;;;;5129494;27;19912;-41
2023/07/13 06:17:45;;;;;;;;;;;16.70;99.90;;;;;;5134487;27;19908;-43
2023/07/13 06:20:10;;;;;;;;;;;16.70;99.90;;;;;;5134207;27;20341;-45
2023/07/13 06:22:36;;;;;;;;;;;16.70;99.90;;;;;;5130104;27;19959;-45
2023/07/13 06:25:02;;;;;;;;;;;16.80;99.90;;;;;;5154524;27;19963;-41
2023/07/13 06:27:27;;;;;;;;;;;16.90;99.90;;;;;;5142529;27;20283;-42
2023/07/13 06:29:53;;;;;;;;;;;16.90;99.90;;;;;;5130634;27;20026;-43
2023/07/13 06:32:18;;;;;;;;;;;17.00;99.90;;;;;;5126589;27;20006;-43
2023/07/13 06:34:44;;;;;;;;;;;17.10;99.90;;;;;;5130452;27;20332;-44
2023/07/13 06:37:10;;;;;;;;;;;17.10;99.90;;;;;;5122485;27;19912;-44
2023/07/13 06:39:35;;;;;;;;;;;17.20;99.90;;;;;;5130794;27;19929;-42
2023/07/13 06:42:01;;;;;;;;;;;17.30;99.90;;;;;;5134317;27;19938;-42
2023/07/13 06:44:26;;;;;;;;;;;17.30;99.90;;;;;;5131886;27;19908;-43
2023/07/13 06:46:52;;;;;;;;;;;17.40;99.90;;;;;;5134945;27;19958;-42
2023/07/13 06:49:17;;;;;;;;;;;17.50;99.90;;;;;;5121538;27;19938;-43
2023/07/13 06:51:43;;;;;;;;;;;17.60;99.90;;;;;;5127987;27;20297;-43
2023/07/13 06:54:08;;;;;;;;;;;17.70;99.90;;;;;;5124075;27;20365;-43
2023/07/13 06:56:34;;;;;;;;;;;17.80;99.90;;;;;;5130219;27;19912;-44
2023/07/13 06:58:59;;;;;;;;;;;17.80;99.90;;;;;;5130740;27;19941;-45
2023/07/13 07:01:25;;;;;;;;;;;17.90;99.90;;;;;;5126482;27;19923;-43
2023/07/13 07:03:51;;;;;;;;;;;18.00;99.90;;;;;;5117334;27;19912;-42
2023/07/13 07:06:17;;;;;;;;;;;18.10;99.90;;;;;;5118532;27;20318;-43
2023/07/13 07:08:44;;;;;;;;;;;18.30;99.90;;;;;;5127593;27;20060;-42
2023/07/13 07:11:14;;;;;;;;;;;18.40;99.90;;;;;;5114811;27;19940;-47
2023/07/13 07:13:39;;;;;;;;;;;18.60;99.90;;;;;;5119576;27;19912;-43
2023/07/13 07:16:05;;;;;;;;;;;18.70;99.90;;;;;;5129362;27;19911;-41
2023/07/13 07:18:30;;;;;;;;;;;18.80;99.90;;;;;;5132330;27;19907;-43
2023/07/13 07:20:56;;;;;;;;;;;18.80;99.90;;;;;;5118448;27;20362;-43
2023/07/13 07:23:21;;;;;;;;;;;18.90;99.90;;;;;;5120587;27;20475;-43
2023/07/13 07:25:47;;;;;;;;;;;18.90;99.90;;;;;;5124304;27;20048;-43
2023/07/13 07:28:14;;;;;;;;;;;18.90;99.90;;;;;;5124331;27;19931;-43
2023/07/13 07:30:43;;;;;;;;;;;18.90;99.90;;;;;;5129914;27;20357;-42
2023/07/13 07:33:09;;;;;;;;;;;18.90;99.90;;;;;;5132503;27;19925;-42
2023/07/13 07:35:34;;;;;;;;;;;18.90;99.90;;;;;;5138427;27;19976;-44
2023/07/13 07:38:00;;;;;;;;;;;18.90;99.90;;;;;;5145389;27;19911;-43
2023/07/13 07:40:26;;;;;;;;;;;18.90;99.90;;;;;;5118970;27;19964;-43
2023/07/13 07:42:51;;;;;;;;;;;18.90;99.90;;;;;;5117257;27;20312;-42
2023/07/13 07:45:17;;;;;;;;;;;18.90;99.90;;;;;;5124739;27;19911;-42
2023/07/13 07:47:43;;;;;;;;;;;18.90;99.90;;;;;;5121730;27;19915;-42
2023/07/13 07:50:09;;;;;;;;;;;19.00;99.90;;;;;;5117017;27;19947;-44
2023/07/13 07:52:34;;;;;;;;;;;18.90;99.90;;;;;;5118718;27;19907;-43
2023/07/13 07:55:00;;;;;;;;;;;19.00;99.90;;;;;;5134325;27;19911;-43
2023/07/13 07:57:26;;;;;;;;;;;18.90;99.90;;;;;;5134620;27;19912;-44
2023/07/13 07:59:51;;;;;;;;;;;19.00;99.90;;;;;;5133982;27;19912;-42
2023/07/13 08:02:17;;;;;;;;;;;19.00;99.90;;;;;;5129789;27;20092;-44
2023/07/13 08:04:43;;;;;;;;;;;18.90;99.90;;;;;;5134482;27;19907;-43
2023/07/13 08:07:09;;;;;;;;;;;19.00;99.90;;;;;;5133959;27;19916;-43
2023/07/13 08:09:34;;;;;;;;;;;19.00;99.90;;;;;;5132870;27;19919;-43
2023/07/13 08:12:00;;;;;;;;;;;19.00;99.90;;;;;;5118133;27;19916;-43
2023/07/13 08:14:25;;;;;;;;;;;19.00;99.90;;;;;;5125406;27;19911;-42
2023/07/13 08:16:51;;;;;;;;;;;18.90;99.90;;;;;;5131217;27;22012;-44
2023/07/13 08:19:16;;;;;;;;;;;19.00;99.90;;;;;;5120835;27;20250;-41
2023/07/13 08:21:43;;;;;;;;;;;19.00;99.90;;;;;;5113757;27;20015;-42
2023/07/13 08:24:09;;;;;;;;;;;19.10;99.90;;;;;;5113515;27;19923;-43
2023/07/13 08:26:34;;;;;;;;;;;19.20;99.90;;;;;;5119196;27;20015;-43
2023/07/13 08:29:00;;;;;;;;;;;19.20;99.90;;;;;;5112248;28;20007;-44
2023/07/13 08:31:25;;;;;;;;;;;19.30;99.90;;;;;;5126870;27;19960;-42
2023/07/13 08:33:51;;;;;;;;;;;19.30;99.90;;;;;;5127521;27;19912;-48
2023/07/13 08:36:16;;;;;;;;;;;19.50;99.90;;;;;;5113847;28;20259;-43
2023/07/13 08:38:42;;;;;;;;;;;19.60;99.90;;;;;;5113866;27;20338;-42
2023/07/13 08:41:12;;;;;;;;;;;19.60;99.90;;;;;;5116895;27;20292;-42
2023/07/13 08:43:38;;;;;;;;;;;19.60;99.90;;;;;;5116809;27;19916;-43
2023/07/13 08:46:31;;;;;;;;;;;19.40;99.90;;;;;;5116392;27;20358;-42
2023/07/13 08:48:58;;;;;;;;;;;19.20;99.90;;;;;;5129027;27;19911;-44
2023/07/13 08:51:35;;;;;;;;;;;19.00;99.90;;;;;;5143993;27;19919;-42
2023/07/13 08:54:02;;;;;;;;;;;18.80;99.90;;;;;;5139600;27;19913;-43
2023/07/13 08:56:29;;;;;;;;;;;18.60;99.90;;;;;;5142021;27;19922;-44
2023/07/13 08:58:56;;;;;;;;;;;18.40;99.90;;;;;;5147704;27;19959;-41
2023/07/13 09:01:45;;;;;;;;;;;18.10;99.90;;;;;;5148277;27;19911;-41
2023/07/13 09:04:22;;;;;;;;;;;17.90;99.90;;;;;;5122686;27;19912;-40
2023/07/13 09:06:54;;;;;;;;;;;17.70;99.90;;;;;;5134546;27;19996;-41
2023/07/13 09:09:37;;;;;;;;;;;17.60;99.90;;;;;;5131793;28;19915;-41
2023/07/13 09:12:15;;;;;;;;;;;17.50;99.90;;;;;;5132664;28;19912;-42
2023/07/13 09:14:48;;;;;;;;;;;17.40;99.90;;;;;;5138622;27;19908;-42
2023/07/13 09:17:16;;;;;;;;;;;17.40;99.90;;;;;;5152142;27;19953;-41
2023/07/13 09:19:43;;;;;;;;;;;17.20;99.90;;;;;;5153473;27;19926;-42
2023/07/13 09:22:13;;;;;;;;;;;17.10;99.90;;;;;;5153453;27;19913;-41
2023/07/13 09:24:39;;;;;;;;;;;17.00;99.90;;;;;;5152527;27;19914;-43
2023/07/13 09:27:17;;;;;;;;;;;16.90;99.90;;;;;;5153983;27;19923;-42
2023/07/13 09:29:47;;;;;;;;;;;16.90;99.90;;;;;;5143147;27;19914;-42
2023/07/13 09:32:15;;;;;;;;;;;16.80;99.90;;;;;;5136776;27;19912;-43
2023/07/13 09:34:40;;;;;;;;;;;16.80;99.90;;;;;;5137288;27;19908;-42
2023/07/13 09:37:06;;;;;;;;;;;16.70;99.90;;;;;;5137241;27;20038;-43
2023/07/13 09:39:41;;;;;;;;;;;16.60;99.90;;;;;;5143466;27;19934;-43
2023/07/13 09:42:12;;;;;;;;;;;16.60;99.90;;;;;;5157998;27;19911;-42
2023/07/13 09:44:39;;;;;;;;;;;16.50;99.90;;;;;;5157140;27;19911;-40
2023/07/13 09:47:23;;;;;;;;;;;16.30;99.90;;;;;;5157875;27;19922;-43
2023/07/13 09:49:55;;;;;;;;;;;16.10;99.90;;;;;;5157760;27;20353;-43
2023/07/13 09:52:20;;;;;;;;;;;16.00;99.90;;;;;;5157088;27;20354;-43
2023/07/13 09:54:48;;;;;;;;;;;15.90;99.90;;;;;;5135806;27;19918;-42
2023/07/13 09:57:15;;;;;;;;;;;15.90;99.90;;;;;;5139528;27;20254;-42
2023/07/13 09:59:45;;;;;;;;;;;15.80;99.90;;;;;;5128996;27;19908;-41
2023/07/13 10:02:22;;;;;;;;;;;15.80;99.90;;;;;;5141563;27;19919;-41
2023/07/13 10:04:55;;;;;;;;;;;15.90;99.90;;;;;;5130583;27;20383;-43
2023/07/13 10:07:22;;;;;;;;;;;15.80;99.90;;;;;;5136431;27;19926;-41
2023/07/13 10:09:53;;;;;;;;;;;15.90;99.90;;;;;;5157061;27;19995;-41
2023/07/13 10:12:18;;;;;;;;;;;16.00;99.90;;;;;;5147094;27;19922;-42
2023/07/13 10:14:44;;;;;;;;;;;16.10;99.90;;;;;;5136057;27;20249;-42
2023/07/13 10:17:12;;;;;;;;;;;16.20;99.90;;;;;;5136025;27;19954;-41
2023/07/13 10:19:37;;;;;;;;;;;16.40;99.90;;;;;;5135900;27;19929;-42
2023/07/13 10:22:22;;;;;;;;;;;16.50;99.90;;;;;;5136362;27;19912;-41
2023/07/13 10:24:50;;;;;;;;;;;16.60;99.90;;;;;;5135693;27;19915;-41
2023/07/13 10:27:20;;;;;;;;;;;16.80;99.90;;;;;;5135368;27;20334;-41
2023/07/13 10:29:59;;;;;;;;;;;17.00;99.90;;;;;;5136029;27;20281;-41
2023/07/13 10:32:25;;;;;;;;;;;17.10;99.90;;;;;;5127926;27;19916;-40
2023/07/13 10:34:52;;;;;;;;;;;17.40;99.90;;;;;;5134883;27;19911;-41
2023/07/13 10:37:27;;;;;;;;;;;17.50;99.90;;;;;;5135436;27;19911;-41
2023/07/13 10:39:53;;;;;;;;;;;17.60;99.90;;;;;;5134788;27;19924;-41
2023/07/13 10:42:26;;;;;;;;;;;17.70;99.90;;;;;;5132532;27;20024;-42
2023/07/13 10:44:51;;;;;;;;;;;17.80;99.90;;;;;;5115895;27;20350;-41
2023/07/13 10:47:18;;;;;;;;;;;18.10;99.90;;;;;;5122417;27;19954;-41
2023/07/13 10:49:43;;;;;;;;;;;18.30;99.90;;;;;;5135429;27;19911;-41
2023/07/13 10:52:28;;;;;;;;;;;18.50;99.90;;;;;;5127569;27;20311;-41
2023/07/13 10:54:53;;;;;;;;;;;18.60;99.90;;;;;;5113865;28;19911;-43
2023/07/13 10:57:20;;;;;;;;;;;18.90;99.90;;;;;;5121322;27;20288;-42
2023/07/13 10:59:47;;;;;;;;;;;19.10;99.90;;;;;;5134962;27;19911;-42
2023/07/13 11:02:25;;;;;;;;;;;19.20;99.90;;;;;;5134051;27;19954;-41
2023/07/13 11:04:52;;;;;;;;;;;19.30;99.90;;;;;;5127247;27;20338;-41
2023/07/13 11:07:28;;;;;;;;;;;19.60;99.90;;;;;;5133252;27;19915;-41
2023/07/13 11:09:55;;;;;;;;;;;19.80;99.90;;;;;;5128277;27;19959;-40
2023/07/13 11:12:25;;;;;;;;;;;20.10;99.90;;;;;;5119996;27;19911;-41
2023/07/13 11:14:57;;;;;;;;;;;20.40;99.90;;;;;;5122235;27;19966;-41
2023/07/13 11:17:24;;;;;;;;;;;20.60;99.90;;;;;;5123631;27;19911;-41
2023/07/13 11:19:51;;;;;;;;;;;20.80;99.90;;;;;;5128446;27;19915;-41
2023/07/13 11:22:21;;;;;;;;;;;21.00;99.90;;;;;;5118761;27;19915;-42
2023/07/13 11:24:51;;;;;;;;;;;21.10;99.90;;;;;;5118217;27;19912;-41
2023/07/13 11:27:22;;;;;;;;;;;21.00;99.90;;;;;;5138667;27;19929;-41
2023/07/13 11:29:48;;;;;;;;;;;20.90;99.90;;;;;;5129849;27;19908;-41
2023/07/13 11:32:30;;;;;;;;;;;20.60;99.90;;;;;;5137741;27;19918;-43
2023/07/13 11:34:55;;;;;;;;;;;20.40;99.90;;;;;;5129396;27;19912;-41
2023/07/13 11:37:22;;;;;;;;;;;20.20;99.90;;;;;;5126371;27;19919;-41
2023/07/13 11:39:48;;;;;;;;;;;20.00;99.90;;;;;;5117448;27;20343;-41
2023/07/13 11:42:15;;;;;;;;;;;19.80;99.90;;;;;;5131572;27;19920;-42
2023/07/13 11:44:46;;;;;;;;;;;19.60;99.90;;;;;;5125854;27;19911;-41
2023/07/13 11:47:16;;;;;;;;;;;19.50;99.90;;;;;;5123372;27;19920;-41
2023/07/13 11:49:48;;;;;;;;;;;19.40;99.90;;;;;;5119185;27;20230;-42
2023/07/13 11:52:21;;;;;;;;;;;19.30;99.90;;;;;;5132442;27;20023;-41
2023/07/13 11:54:55;;;;;;;;;;;19.50;99.90;;;;;;5120742;27;20354;-41
2023/07/13 11:57:33;;;;;;;;;;;19.60;99.90;;;;;;5114041;28;19949;-41
2023/07/13 12:00:00;;;;;;;;;;;19.80;99.90;;;;;;5113069;28;19912;-41
2023/07/13 12:02:30;;;;;;;;;;;20.00;99.90;;;;;;5118600;27;20331;-41
2023/07/13 12:04:56;;;;;;;;;;;20.10;99.90;;;;;;5113021;28;19908;-41
2023/07/13 12:07:22;;;;;;;;;;;20.00;99.90;;;;;;5119354;27;20014;-42
2023/07/13 12:09:50;;;;;;;;;;;19.90;99.90;;;;;;5134512;27;20305;-42
2023/07/13 12:12:20;;;;;;;;;;;19.80;99.90;;;;;;5133456;27;19954;-41
2023/07/13 12:14:46;;;;;;;;;;;19.90;99.90;;;;;;5131799;27;19926;-41
2023/07/13 12:17:22;;;;;;;;;;;20.20;99.90;;;;;;5113997;27;20300;-42
2023/07/13 12:19:48;;;;;;;;;;;20.50;99.90;;;;;;5110769;28;19918;-42
2023/07/13 12:22:15;;;;;;;;;;;20.70;99.90;;;;;;5111446;28;19999;-41
2023/07/13 12:24:41;;;;;;;;;;;20.80;99.90;;;;;;5111482;28;19915;-42
2023/07/13 12:27:17;;;;;;;;;;;20.90;99.90;;;;;;5110992;28;19939;-41
2023/07/13 12:29:49;;;;;;;;;;;20.90;99.90;;;;;;5111758;28;19907;-41
2023/07/13 12:32:17;;;;;;;;;;;20.90;99.90;;;;;;5111953;28;19908;-43
2023/07/13 12:34:52;;;;;;;;;;;20.90;99.90;;;;;;5111981;28;19915;-42
2023/07/13 12:37:18;;;;;;;;;;;21.10;99.90;;;;;;5113403;27;20205;-41
2023/07/13 12:39:45;;;;;;;;;;;21.50;99.90;;;;;;5115220;27;20011;-41
2023/07/13 12:42:26;;;;;;;;;;;21.50;99.90;;;;;;5111869;28;19919;-42
2023/07/13 12:45:14;;;;;;;;;;;21.30;99.90;;;;;;5112780;28;20010;-42
2023/07/13 12:47:41;;;;;;;;;;;21.10;99.90;;;;;;5114887;28;19919;-42
2023/07/13 12:50:14;;;;;;;;;;;21.10;99.90;;;;;;5133719;27;19907;-41
2023/07/13 12:52:43;;;;;;;;;;;21.20;99.90;;;;;;5133769;28;19908;-41
2023/07/13 12:55:14;;;;;;;;;;;21.50;99.90;;;;;;5132870;27;19959;-43
2023/07/13 12:57:43;;;;;;;;;;;21.70;99.90;;;;;;5133671;28;20254;-42
2023/07/13 13:00:21;;;;;;;;;;;21.60;99.90;;;;;;5133759;28;19908;-42
2023/07/13 13:02:50;;;;;;;;;;;21.60;99.90;;;;;;5117061;28;20372;-42
2023/07/13 13:05:16;;;;;;;;;;;22.00;99.90;;;;;;5125054;27;19919;-41
2023/07/13 13:07:42;;;;;;;;;;;22.50;99.90;;;;;;5132984;27;19921;-42
2023/07/13 13:10:13;;;;;;;;;;;22.90;99.90;;;;;;5138279;27;19919;-41
2023/07/13 13:12:40;;;;;;;;;;;23.30;99.90;;;;;;5118297;28;19918;-43
2023/07/13 13:15:07;;;;;;;;;;;23.60;99.90;;;;;;5117968;28;19915;-41
2023/07/13 13:17:33;;;;;;;;;;;23.90;99.90;;;;;;5117456;28;19998;-41
2023/07/13 13:19:59;;;;;;;;;;;24.00;99.90;;;;;;5117827;28;20411;-41
2023/07/13 13:22:24;;;;;;;;;;;24.20;99.90;;;;;;5121070;27;19912;-42
2023/07/13 13:24:50;;;;;;;;;;;24.20;99.90;;;;;;5132765;27;19912;-41
2023/07/13 13:27:17;;;;;;;;;;;24.30;94.70;;;;;;5121660;27;19934;-41
2023/07/13 13:29:43;;;;;;;;;;;24.20;98.70;;;;;;5117124;28;19999;-42
2023/07/13 13:32:11;;;;;;;;;;;23.90;99.90;;;;;;5117525;28;20374;-40
2023/07/13 13:34:37;;;;;;;;;;;23.20;97.90;;;;;;5117527;28;19908;-41
2023/07/13 13:37:02;;;;;;;;;;;22.90;99.90;;;;;;5116918;28;19961;-41
2023/07/13 13:39:32;;;;;;;;;;;23.00;99.90;;;;;;5117293;28;19980;-41
2023/07/13 13:41:58;;;;;;;;;;;23.40;99.90;;;;;;5117291;28;19908;-43
2023/07/13 13:44:24;;;;;;;;;;;23.30;99.90;;;;;;5116817;28;20251;-41
2023/07/13 13:46:51;;;;;;;;;;;23.50;99.90;;;;;;5129709;27;19973;-43
2023/07/13 13:49:18;;;;;;;;;;;23.50;99.90;;;;;;5119712;27;20394;-42
2023/07/13 13:51:44;;;;;;;;;;;23.30;99.90;;;;;;5115289;28;19908;-42
2023/07/13 13:54:13;;;;;;;;;;;23.10;99.90;;;;;;5133298;27;19918;-41
2023/07/13 13:56:41;;;;;;;;;;;22.80;99.90;;;;;;5136136;27;19916;-41
2023/07/13 13:59:08;;;;;;;;;;;22.50;99.90;;;;;;5134819;27;19912;-41
2023/07/13 14:01:35;;;;;;;;;;;22.40;99.90;;;;;;5122856;27;19916;-41
2023/07/13 14:04:00;;;;;;;;;;;22.70;99.90;;;;;;5114584;27;20330;-41
2023/07/13 14:06:26;;;;;;;;;;;23.20;99.90;;;;;;5114297;28;19962;-41
2023/07/13 14:08:51;;;;;;;;;;;23.20;99.90;;;;;;5129133;27;19920;-41
2023/07/13 14:11:18;;;;;;;;;;;23.10;97.90;;;;;;5129758;27;19912;-42
2023/07/13 14:13:47;;;;;;;;;;;23.10;99.90;;;;;;5127737;27;20003;-44
2023/07/13 14:16:15;;;;;;;;;;;23.30;99.90;;;;;;5125358;27;19958;-42